ARG1355 SABE-SASA
Flight info
| Callsign | ARG1355 |
|---|---|
| Flight time | 1h 55m |
| Altitude | 30000 |
| Route | BIVAM4B BIVAM UW8 ERE UT672 DADMI UT677 ILPAR |
| Aircraft | B738/M-SDE2E3FGHIRWXY/LB1 |
Departure
| Time | 2026-04-22 19:33 |
|---|---|
| Airport | Aeroparque Jorge Newbery (SABE) |
Arrival
| Time | 2026-04-22 21:28 |
|---|---|
| Airport | Martín Miguel de Güemes International Airport (SASA) |
| Time | Latitude | Longitude | Altitude | Speed | Heading |
|---|---|---|---|---|---|
| 2026-04-22 18:40 | -34.55854 | -58.41174 | 26 ft | 0 kts | 44° |
| 2026-04-22 19:20 | -34.55865 | -58.41188 | 32 ft | 4 kts | 66° |
| 2026-04-22 19:20 | -34.55866 | -58.41217 | 26 ft | 4 kts | 115° |
| 2026-04-22 19:21 | -34.55852 | -58.41244 | 26 ft | 4 kts | 130° |
| 2026-04-22 19:21 | -34.55848 | -58.41250 | 26 ft | 2 kts | 130° |
| 2026-04-22 19:25 | -34.55856 | -58.41249 | 26 ft | 2 kts | 182° |
| 2026-04-22 19:25 | -34.55864 | -58.41263 | 26 ft | 3 kts | 249° |
| 2026-04-22 19:26 | -34.55883 | -58.41289 | 26 ft | 7 kts | 216° |
| 2026-04-22 19:26 | -34.55930 | -58.41285 | 27 ft | 7 kts | 130° |
| 2026-04-22 19:26 | -34.55961 | -58.41236 | 26 ft | 8 kts | 127° |
| 2026-04-22 19:26 | -34.56002 | -58.41169 | 30 ft | 12 kts | 127° |
| 2026-04-22 19:27 | -34.56063 | -58.41070 | 30 ft | 16 kts | 127° |
| 2026-04-22 19:27 | -34.56129 | -58.40967 | 27 ft | 15 kts | 128° |
| 2026-04-22 19:27 | -34.56168 | -58.40863 | 30 ft | 12 kts | 106° |
| 2026-04-22 19:27 | -34.56202 | -58.40768 | 26 ft | 12 kts | 120° |
| 2026-04-22 19:28 | -34.56247 | -58.40683 | 26 ft | 12 kts | 124° |
| 2026-04-22 19:28 | -34.56293 | -58.40601 | 28 ft | 12 kts | 124° |
| 2026-04-22 19:28 | -34.56339 | -58.40523 | 29 ft | 11 kts | 131° |
| 2026-04-22 19:28 | -34.56397 | -58.40460 | 28 ft | 11 kts | 140° |
| 2026-04-22 19:29 | -34.56435 | -58.40421 | 26 ft | 0 kts | 140° |
| 2026-04-22 19:31 | -34.56438 | -58.40418 | 26 ft | 2 kts | 139° |
| 2026-04-22 19:31 | -34.56482 | -58.40372 | 30 ft | 13 kts | 142° |
| 2026-04-22 19:31 | -34.56562 | -58.40406 | 24 ft | 12 kts | 249° |
| 2026-04-22 19:31 | -34.56541 | -58.40465 | 24 ft | 7 kts | 303° |
| 2026-04-22 19:32 | -34.56513 | -58.40517 | 26 ft | 7 kts | 304° |
| 2026-04-22 19:32 | -34.56482 | -58.40573 | 28 ft | 14 kts | 304° |
| 2026-04-22 19:32 | -34.56307 | -58.40886 | 28 ft | 88 kts | 304° |
| 2026-04-22 19:32 | -34.55810 | -58.41783 | 30 ft | 166 kts | 304° |
| 2026-04-22 19:33 | -34.55118 | -58.43055 | 660 ft | 192 kts | 304° |
| 2026-04-22 19:33 | -34.54251 | -58.44404 | 1465 ft | 210 kts | 316° |
| 2026-04-22 19:33 | -34.52981 | -58.45298 | 2320 ft | 224 kts | 348° |
| 2026-04-22 19:33 | -34.51484 | -58.45001 | 3529 ft | 206 kts | 25° |
| 2026-04-22 19:34 | -34.50252 | -58.44072 | 4428 ft | 213 kts | 28° |
| 2026-04-22 19:34 | -34.48918 | -58.43061 | 4603 ft | 239 kts | 28° |
| 2026-04-22 19:34 | -34.47443 | -58.41931 | 4852 ft | 261 kts | 30° |
| 2026-04-22 19:34 | -34.45825 | -58.40682 | 5024 ft | 286 kts | 32° |
| 2026-04-22 19:35 | -34.44132 | -58.39374 | 5120 ft | 289 kts | 32° |
| 2026-04-22 19:35 | -34.42350 | -58.38259 | 5115 ft | 288 kts | 11° |
| 2026-04-22 19:35 | -34.41039 | -58.38158 | 5205 ft | 286 kts | 347° |
| 2026-04-22 19:35 | -34.38779 | -58.39600 | 6249 ft | 277 kts | 316° |
| 2026-04-22 19:36 | -34.37388 | -58.41201 | 7090 ft | 277 kts | 309° |
| 2026-04-22 19:36 | -34.36084 | -58.42941 | 7878 ft | 281 kts | 307° |
| 2026-04-22 19:36 | -34.34787 | -58.44726 | 8670 ft | 284 kts | 307° |
| 2026-04-22 19:36 | -34.33475 | -58.46522 | 9478 ft | 287 kts | 307° |
| 2026-04-22 19:37 | -34.32143 | -58.48328 | 10346 ft | 286 kts | 307° |
| 2026-04-22 19:37 | -34.30786 | -58.50164 | 10805 ft | 303 kts | 308° |
| 2026-04-22 19:37 | -34.29326 | -58.52128 | 10991 ft | 325 kts | 308° |
| 2026-04-22 19:37 | -34.27758 | -58.54227 | 11182 ft | 347 kts | 309° |
| 2026-04-22 19:38 | -34.26113 | -58.56417 | 11706 ft | 355 kts | 309° |
| 2026-04-22 19:38 | -34.24445 | -58.58621 | 12506 ft | 354 kts | 309° |
| 2026-04-22 19:38 | -34.22785 | -58.60810 | 13291 ft | 354 kts | 309° |
| 2026-04-22 19:38 | -34.21112 | -58.63016 | 13924 ft | 357 kts | 309° |
| 2026-04-22 19:39 | -34.19425 | -58.65243 | 14528 ft | 360 kts | 309° |
| 2026-04-22 19:39 | -34.17728 | -58.67478 | 15181 ft | 362 kts | 309° |
| 2026-04-22 19:39 | -34.16028 | -58.69718 | 15870 ft | 362 kts | 309° |
| 2026-04-22 19:39 | -34.14321 | -58.71965 | 16492 ft | 364 kts | 309° |
| 2026-04-22 19:40 | -34.12603 | -58.74227 | 17076 ft | 366 kts | 309° |
| 2026-04-22 19:40 | -34.11462 | -58.75728 | 17478 ft | 367 kts | 309° |
| 2026-04-22 19:40 | -34.09729 | -58.78005 | 18041 ft | 369 kts | 309° |
| 2026-04-22 19:40 | -34.07988 | -58.80293 | 18575 ft | 371 kts | 309° |
| 2026-04-22 19:41 | -34.06235 | -58.82597 | 19095 ft | 374 kts | 309° |
| 2026-04-22 19:41 | -34.04468 | -58.84916 | 19640 ft | 375 kts | 309° |
| 2026-04-22 19:41 | -34.02696 | -58.87243 | 20150 ft | 378 kts | 309° |
| 2026-04-22 19:41 | -34.00331 | -58.90339 | 20816 ft | 380 kts | 310° |
| 2026-04-22 19:42 | -33.99123 | -58.91921 | 21161 ft | 381 kts | 310° |
| 2026-04-22 19:42 | -33.97241 | -58.94200 | 21554 ft | 387 kts | 315° |
| 2026-04-22 19:42 | -33.95091 | -58.96133 | 21954 ft | 394 kts | 324° |
| 2026-04-22 19:42 | -33.92688 | -58.97830 | 22419 ft | 396 kts | 325° |
| 2026-04-22 19:43 | -33.87983 | -59.01217 | 23261 ft | 398 kts | 324° |
| 2026-04-22 19:43 | -33.85609 | -59.02949 | 23646 ft | 400 kts | 324° |
| 2026-04-22 19:43 | -33.83221 | -59.04693 | 24052 ft | 401 kts | 324° |
| 2026-04-22 19:44 | -33.80822 | -59.06444 | 24430 ft | 403 kts | 324° |
| 2026-04-22 19:44 | -33.78418 | -59.08196 | 24789 ft | 405 kts | 324° |
| 2026-04-22 19:44 | -33.75997 | -59.09959 | 25164 ft | 406 kts | 324° |
| 2026-04-22 19:44 | -33.73580 | -59.11719 | 25523 ft | 408 kts | 323° |
| 2026-04-22 19:45 | -33.71154 | -59.13486 | 25862 ft | 409 kts | 323° |
| 2026-04-22 19:45 | -33.68718 | -59.15257 | 26288 ft | 408 kts | 323° |
| 2026-04-22 19:45 | -33.66305 | -59.17008 | 26823 ft | 404 kts | 323° |
| 2026-04-22 19:45 | -33.63941 | -59.18721 | 27304 ft | 401 kts | 322° |
| 2026-04-22 19:46 | -33.61524 | -59.20473 | 27754 ft | 399 kts | 322° |
| 2026-04-22 19:46 | -33.59185 | -59.22169 | 28188 ft | 397 kts | 322° |
| 2026-04-22 19:46 | -33.56823 | -59.23880 | 28647 ft | 395 kts | 322° |
| 2026-04-22 19:46 | -33.54482 | -59.25573 | 29093 ft | 392 kts | 321° |
| 2026-04-22 19:47 | -33.52147 | -59.27262 | 29534 ft | 390 kts | 321° |
| 2026-04-22 19:47 | -33.49838 | -59.28932 | 30008 ft | 387 kts | 321° |
| 2026-04-22 19:47 | -33.45282 | -59.32222 | 30117 ft | 380 kts | 320° |
| 2026-04-22 19:48 | -33.40707 | -59.35526 | 30114 ft | 388 kts | 321° |
| 2026-04-22 19:48 | -33.36077 | -59.38867 | 30112 ft | 388 kts | 321° |
| 2026-04-22 19:49 | -33.31439 | -59.42204 | 30115 ft | 389 kts | 321° |
| 2026-04-22 19:49 | -33.26792 | -59.45542 | 30097 ft | 389 kts | 321° |
| 2026-04-22 19:50 | -33.22160 | -59.48866 | 30109 ft | 388 kts | 321° |
| 2026-04-22 19:50 | -33.17569 | -59.52157 | 30114 ft | 387 kts | 321° |
| 2026-04-22 19:51 | -33.12952 | -59.55467 | 30110 ft | 386 kts | 321° |
| 2026-04-22 19:51 | -33.08344 | -59.58758 | 30108 ft | 386 kts | 321° |
| 2026-04-22 19:52 | -33.03745 | -59.62043 | 30102 ft | 385 kts | 321° |
| 2026-04-22 19:52 | -32.99150 | -59.65325 | 30095 ft | 385 kts | 321° |
| 2026-04-22 19:53 | -32.94552 | -59.68595 | 30108 ft | 385 kts | 321° |
| 2026-04-22 19:53 | -32.89949 | -59.71870 | 30119 ft | 385 kts | 321° |
| 2026-04-22 19:54 | -32.85369 | -59.75127 | 30126 ft | 386 kts | 321° |
| 2026-04-22 19:54 | -32.80760 | -59.78397 | 30121 ft | 386 kts | 321° |
| 2026-04-22 19:55 | -32.76138 | -59.81678 | 30122 ft | 387 kts | 321° |
| 2026-04-22 19:55 | -32.71507 | -59.84960 | 30120 ft | 387 kts | 321° |
| 2026-04-22 19:56 | -32.66875 | -59.88234 | 30120 ft | 387 kts | 321° |
| 2026-04-22 19:56 | -32.62245 | -59.91507 | 30122 ft | 387 kts | 321° |
| 2026-04-22 19:57 | -32.57636 | -59.94761 | 30121 ft | 387 kts | 321° |
| 2026-04-22 19:57 | -32.53000 | -59.98028 | 30117 ft | 388 kts | 321° |
| 2026-04-22 19:58 | -32.48364 | -60.01297 | 30125 ft | 388 kts | 321° |
| 2026-04-22 19:58 | -32.43719 | -60.04569 | 30118 ft | 389 kts | 321° |
| 2026-04-22 20:00 | -32.27493 | -60.15953 | 30128 ft | 386 kts | 321° |
| 2026-04-22 20:01 | -32.22873 | -60.19193 | 30130 ft | 386 kts | 321° |
| 2026-04-22 20:01 | -32.18244 | -60.22435 | 30129 ft | 386 kts | 321° |
| 2026-04-22 20:02 | -32.13612 | -60.25673 | 30132 ft | 387 kts | 321° |
| 2026-04-22 20:02 | -32.08978 | -60.28905 | 30130 ft | 387 kts | 321° |
| 2026-04-22 20:03 | -32.04369 | -60.32122 | 30127 ft | 388 kts | 321° |
| 2026-04-22 20:03 | -31.99714 | -60.35355 | 30132 ft | 388 kts | 321° |
| 2026-04-22 20:04 | -31.95062 | -60.38596 | 30131 ft | 388 kts | 321° |
| 2026-04-22 20:04 | -31.90396 | -60.41831 | 30130 ft | 389 kts | 321° |
| 2026-04-22 20:05 | -31.85741 | -60.45064 | 30127 ft | 389 kts | 321° |
| 2026-04-22 20:05 | -31.81084 | -60.48291 | 30136 ft | 388 kts | 321° |
| 2026-04-22 20:06 | -31.76535 | -60.51638 | 30134 ft | 384 kts | 319° |
| 2026-04-22 20:06 | -31.72089 | -60.55084 | 30133 ft | 383 kts | 319° |
| 2026-04-22 20:07 | -31.67634 | -60.58509 | 30136 ft | 383 kts | 319° |
| 2026-04-22 20:07 | -31.63160 | -60.61921 | 30139 ft | 384 kts | 319° |
| 2026-04-22 20:08 | -31.58685 | -60.65329 | 30144 ft | 384 kts | 319° |
| 2026-04-22 20:08 | -31.54207 | -60.68734 | 30147 ft | 384 kts | 319° |
| 2026-04-22 20:09 | -31.49718 | -60.72140 | 30145 ft | 385 kts | 319° |
| 2026-04-22 20:09 | -31.45241 | -60.75529 | 30149 ft | 386 kts | 319° |
| 2026-04-22 20:10 | -31.40732 | -60.78939 | 30147 ft | 386 kts | 319° |
| 2026-04-22 20:10 | -31.36206 | -60.82357 | 30146 ft | 386 kts | 319° |
| 2026-04-22 20:11 | -31.31686 | -60.85773 | 30156 ft | 386 kts | 320° |
| 2026-04-22 20:11 | -31.27169 | -60.89178 | 30155 ft | 386 kts | 320° |
| 2026-04-22 20:12 | -31.22658 | -60.92576 | 30153 ft | 385 kts | 320° |
| 2026-04-22 20:12 | -31.18910 | -60.95393 | 30154 ft | 385 kts | 320° |
| 2026-04-22 20:13 | -31.13676 | -60.99335 | 30159 ft | 385 kts | 320° |
| 2026-04-22 20:13 | -31.09171 | -61.02711 | 30161 ft | 385 kts | 320° |
| 2026-04-22 20:14 | -31.04662 | -61.06091 | 30153 ft | 385 kts | 320° |
| 2026-04-22 20:14 | -31.00159 | -61.09458 | 30151 ft | 385 kts | 320° |
| 2026-04-22 20:15 | -30.95649 | -61.12815 | 30158 ft | 385 kts | 320° |
| 2026-04-22 20:15 | -30.91139 | -61.16177 | 30157 ft | 385 kts | 320° |
| 2026-04-22 20:16 | -30.86621 | -61.19541 | 30159 ft | 385 kts | 320° |
| 2026-04-22 20:16 | -30.82132 | -61.22883 | 30162 ft | 385 kts | 320° |
| 2026-04-22 20:17 | -30.77616 | -61.26242 | 30161 ft | 385 kts | 320° |
| 2026-04-22 20:17 | -30.73087 | -61.29599 | 30161 ft | 387 kts | 320° |
| 2026-04-22 20:18 | -30.68552 | -61.32962 | 30154 ft | 387 kts | 320° |
| 2026-04-22 20:18 | -30.64001 | -61.36333 | 30159 ft | 387 kts | 320° |
| 2026-04-22 20:19 | -30.59480 | -61.39668 | 30154 ft | 386 kts | 320° |
| 2026-04-22 20:19 | -30.54951 | -61.43015 | 30156 ft | 385 kts | 320° |
| 2026-04-22 20:20 | -30.50418 | -61.46363 | 30162 ft | 386 kts | 320° |
| 2026-04-22 20:20 | -30.45880 | -61.49706 | 30158 ft | 387 kts | 320° |
| 2026-04-22 20:21 | -30.41344 | -61.53043 | 30159 ft | 386 kts | 320° |
| 2026-04-22 20:21 | -30.36802 | -61.56387 | 30161 ft | 386 kts | 320° |
| 2026-04-22 20:22 | -30.32265 | -61.59719 | 30160 ft | 387 kts | 320° |
| 2026-04-22 20:22 | -30.27746 | -61.63033 | 30159 ft | 387 kts | 320° |
| 2026-04-22 20:23 | -30.23201 | -61.66363 | 30153 ft | 386 kts | 321° |
| 2026-04-22 20:23 | -30.18666 | -61.69684 | 30150 ft | 386 kts | 321° |
| 2026-04-22 20:24 | -30.14127 | -61.73008 | 30144 ft | 387 kts | 321° |
| 2026-04-22 20:24 | -30.09578 | -61.76330 | 30153 ft | 387 kts | 321° |
| 2026-04-22 20:25 | -30.05023 | -61.79652 | 30147 ft | 388 kts | 321° |
| 2026-04-22 20:25 | -30.00462 | -61.82977 | 30147 ft | 387 kts | 321° |
| 2026-04-22 20:26 | -29.95896 | -61.86299 | 30148 ft | 387 kts | 321° |
| 2026-04-22 20:26 | -29.91328 | -61.89624 | 30147 ft | 388 kts | 321° |
| 2026-04-22 20:27 | -29.86751 | -61.92914 | 30147 ft | 390 kts | 323° |
| 2026-04-22 20:27 | -29.81988 | -61.95870 | 30148 ft | 391 kts | 324° |
| 2026-04-22 20:28 | -29.77181 | -61.98808 | 30151 ft | 390 kts | 324° |
| 2026-04-22 20:28 | -29.72391 | -62.01738 | 30148 ft | 390 kts | 324° |
| 2026-04-22 20:29 | -29.67618 | -62.04675 | 30147 ft | 388 kts | 324° |
| 2026-04-22 20:29 | -29.62852 | -62.07606 | 30146 ft | 388 kts | 324° |
| 2026-04-22 20:30 | -29.58885 | -62.10046 | 30151 ft | 389 kts | 324° |
| 2026-04-22 20:30 | -29.54114 | -62.12974 | 30143 ft | 390 kts | 324° |
| 2026-04-22 20:31 | -29.49320 | -62.15912 | 30135 ft | 391 kts | 324° |
| 2026-04-22 20:31 | -29.44522 | -62.18855 | 30138 ft | 392 kts | 324° |
| 2026-04-22 20:32 | -29.39708 | -62.21798 | 30139 ft | 392 kts | 324° |
| 2026-04-22 20:32 | -29.34891 | -62.24742 | 30140 ft | 392 kts | 324° |
| 2026-04-22 20:33 | -29.30072 | -62.27689 | 30134 ft | 393 kts | 325° |
| 2026-04-22 20:33 | -29.25255 | -62.30623 | 30140 ft | 392 kts | 324° |
| 2026-04-22 20:34 | -29.20439 | -62.33556 | 30143 ft | 391 kts | 324° |
| 2026-04-22 20:34 | -29.15665 | -62.36460 | 30135 ft | 392 kts | 325° |
| 2026-04-22 20:35 | -29.10845 | -62.39390 | 30138 ft | 392 kts | 324° |
| 2026-04-22 20:35 | -29.06028 | -62.42315 | 30130 ft | 392 kts | 325° |
| 2026-04-22 20:36 | -29.01205 | -62.45237 | 30130 ft | 392 kts | 325° |
| 2026-04-22 20:36 | -28.96386 | -62.48158 | 30126 ft | 392 kts | 325° |
| 2026-04-22 20:37 | -28.91572 | -62.51072 | 30126 ft | 392 kts | 325° |
| 2026-04-22 20:37 | -28.86760 | -62.53985 | 30126 ft | 392 kts | 325° |
| 2026-04-22 20:38 | -28.82002 | -62.57019 | 30122 ft | 388 kts | 319° |
| 2026-04-22 20:38 | -28.77660 | -62.60644 | 30128 ft | 387 kts | 317° |
| 2026-04-22 20:39 | -28.73326 | -62.64298 | 30131 ft | 389 kts | 318° |
| 2026-04-22 20:39 | -28.68989 | -62.67919 | 30124 ft | 389 kts | 318° |
| 2026-04-22 20:40 | -28.64600 | -62.71560 | 30118 ft | 390 kts | 318° |
| 2026-04-22 20:40 | -28.60210 | -62.75196 | 30113 ft | 391 kts | 318° |
| 2026-04-22 20:41 | -28.55800 | -62.78843 | 30095 ft | 392 kts | 318° |
| 2026-04-22 20:41 | -28.51384 | -62.82494 | 30097 ft | 392 kts | 318° |
| 2026-04-22 20:42 | -28.46967 | -62.86137 | 30089 ft | 392 kts | 319° |
| 2026-04-22 20:42 | -28.42557 | -62.89767 | 30092 ft | 390 kts | 318° |
| 2026-04-22 20:43 | -28.38171 | -62.93380 | 30093 ft | 388 kts | 318° |
| 2026-04-22 20:43 | -28.33788 | -62.96984 | 30096 ft | 388 kts | 318° |
| 2026-04-22 20:44 | -28.29417 | -63.00578 | 30091 ft | 388 kts | 318° |
| 2026-04-22 20:44 | -28.25074 | -63.04144 | 30091 ft | 388 kts | 319° |
| 2026-04-22 20:45 | -28.20701 | -63.07731 | 30093 ft | 388 kts | 319° |
| 2026-04-22 20:45 | -28.16324 | -63.11314 | 30092 ft | 388 kts | 319° |
| 2026-04-22 20:46 | -28.09741 | -63.16696 | 30093 ft | 389 kts | 319° |
| 2026-04-22 20:46 | -28.05347 | -63.20287 | 30095 ft | 389 kts | 319° |
| 2026-04-22 20:47 | -28.00950 | -63.23876 | 30089 ft | 390 kts | 319° |
| 2026-04-22 20:47 | -27.96546 | -63.27466 | 30082 ft | 391 kts | 319° |
| 2026-04-22 20:48 | -27.92155 | -63.31040 | 30097 ft | 391 kts | 319° |
| 2026-04-22 20:48 | -27.87741 | -63.34635 | 30092 ft | 392 kts | 319° |
| 2026-04-22 20:49 | -27.83307 | -63.38242 | 30097 ft | 393 kts | 319° |
| 2026-04-22 20:49 | -27.78858 | -63.41838 | 30109 ft | 393 kts | 319° |
| 2026-04-22 20:50 | -27.74412 | -63.45413 | 30114 ft | 390 kts | 320° |
| 2026-04-22 20:50 | -27.70005 | -63.49007 | 30096 ft | 392 kts | 321° |
| 2026-04-22 20:51 | -27.65596 | -63.52504 | 30091 ft | 389 kts | 319° |
| 2026-04-22 20:51 | -27.61242 | -63.56092 | 30120 ft | 387 kts | 318° |
| 2026-04-22 20:52 | -27.56868 | -63.59629 | 30094 ft | 389 kts | 320° |
| 2026-04-22 20:52 | -27.52442 | -63.63140 | 30085 ft | 389 kts | 319° |
| 2026-04-22 20:53 | -27.48069 | -63.66746 | 30119 ft | 392 kts | 321° |
| 2026-04-22 20:53 | -27.43495 | -63.70124 | 30113 ft | 390 kts | 318° |
| 2026-04-22 20:54 | -27.39173 | -63.73882 | 30090 ft | 396 kts | 320° |
| 2026-04-22 20:54 | -27.34696 | -63.77489 | 30069 ft | 397 kts | 321° |
| 2026-04-22 20:55 | -27.30240 | -63.81021 | 30107 ft | 392 kts | 318° |
| 2026-04-22 20:55 | -27.25839 | -63.84659 | 30112 ft | 394 kts | 319° |
| 2026-04-22 20:56 | -27.21334 | -63.88168 | 30102 ft | 394 kts | 319° |
| 2026-04-22 20:56 | -27.16851 | -63.91767 | 30097 ft | 395 kts | 320° |
| 2026-04-22 20:57 | -27.12428 | -63.95354 | 30092 ft | 390 kts | 320° |
| 2026-04-22 20:57 | -27.07989 | -63.98899 | 30095 ft | 393 kts | 320° |
| 2026-04-22 20:58 | -27.03529 | -64.02456 | 30116 ft | 394 kts | 321° |
| 2026-04-22 20:58 | -26.99077 | -64.06025 | 30081 ft | 394 kts | 320° |
| 2026-04-22 20:59 | -26.94614 | -64.09545 | 30096 ft | 391 kts | 319° |
| 2026-04-22 20:59 | -26.90262 | -64.13131 | 30112 ft | 391 kts | 320° |
| 2026-04-22 21:00 | -26.85785 | -64.16677 | 30113 ft | 399 kts | 318° |
| 2026-04-22 21:00 | -26.81346 | -64.20367 | 30130 ft | 398 kts | 321° |
| 2026-04-22 21:01 | -26.76892 | -64.24020 | 30113 ft | 395 kts | 319° |
| 2026-04-22 21:01 | -26.72355 | -64.27554 | 30116 ft | 400 kts | 321° |
| 2026-04-22 21:02 | -26.67871 | -64.31180 | 30112 ft | 397 kts | 320° |
| 2026-04-22 21:02 | -26.63310 | -64.34744 | 30112 ft | 403 kts | 320° |
| 2026-04-22 21:03 | -26.58770 | -64.38357 | 30108 ft | 397 kts | 319° |
| 2026-04-22 21:03 | -26.54366 | -64.42082 | 30098 ft | 395 kts | 320° |
| 2026-04-22 21:04 | -26.49930 | -64.45664 | 30101 ft | 392 kts | 320° |
| 2026-04-22 21:04 | -26.45486 | -64.49205 | 30102 ft | 392 kts | 320° |
| 2026-04-22 21:05 | -26.41044 | -64.52749 | 30110 ft | 393 kts | 320° |
| 2026-04-22 21:05 | -26.36609 | -64.56294 | 30090 ft | 385 kts | 320° |
| 2026-04-22 21:06 | -26.32329 | -64.59712 | 29955 ft | 378 kts | 320° |
| 2026-04-22 21:06 | -26.30193 | -64.61419 | 29697 ft | 376 kts | 320° |
| 2026-04-22 21:06 | -26.28074 | -64.63112 | 29441 ft | 374 kts | 320° |
| 2026-04-22 21:07 | -26.25984 | -64.64780 | 29201 ft | 373 kts | 320° |
| 2026-04-22 21:07 | -26.23876 | -64.66463 | 28951 ft | 373 kts | 320° |
| 2026-04-22 21:07 | -26.21773 | -64.68141 | 28595 ft | 369 kts | 321° |
| 2026-04-22 21:07 | -26.19696 | -64.69795 | 28214 ft | 364 kts | 320° |
| 2026-04-22 21:08 | -26.17646 | -64.71428 | 27755 ft | 360 kts | 321° |
| 2026-04-22 21:08 | -26.15619 | -64.73043 | 27348 ft | 356 kts | 321° |
| 2026-04-22 21:08 | -26.13607 | -64.74646 | 26904 ft | 354 kts | 321° |
| 2026-04-22 21:08 | -26.11613 | -64.76233 | 26484 ft | 351 kts | 321° |
| 2026-04-22 21:09 | -26.09633 | -64.77810 | 26052 ft | 349 kts | 321° |
| 2026-04-22 21:09 | -26.07660 | -64.79378 | 25626 ft | 347 kts | 321° |
| 2026-04-22 21:09 | -26.05702 | -64.80935 | 25210 ft | 345 kts | 321° |
| 2026-04-22 21:09 | -26.03754 | -64.82482 | 24784 ft | 343 kts | 321° |
| 2026-04-22 21:10 | -26.01812 | -64.84024 | 24371 ft | 342 kts | 322° |
| 2026-04-22 21:10 | -25.99884 | -64.85555 | 23943 ft | 340 kts | 321° |
| 2026-04-22 21:10 | -25.97964 | -64.87079 | 23528 ft | 338 kts | 322° |
| 2026-04-22 21:10 | -25.96050 | -64.88598 | 23128 ft | 338 kts | 322° |
| 2026-04-22 21:11 | -25.94127 | -64.90123 | 22726 ft | 339 kts | 322° |
| 2026-04-22 21:11 | -25.92202 | -64.91650 | 22310 ft | 343 kts | 322° |
| 2026-04-22 21:11 | -25.90239 | -64.93206 | 21902 ft | 349 kts | 322° |
| 2026-04-22 21:11 | -25.88282 | -64.94757 | 21470 ft | 350 kts | 323° |
| 2026-04-22 21:12 | -25.86942 | -64.95817 | 21182 ft | 349 kts | 323° |
| 2026-04-22 21:12 | -25.84337 | -64.97878 | 20626 ft | 346 kts | 323° |
| 2026-04-22 21:12 | -25.82380 | -64.99426 | 20211 ft | 344 kts | 323° |
| 2026-04-22 21:12 | -25.80439 | -65.00960 | 19802 ft | 342 kts | 323° |
| 2026-04-22 21:13 | -25.78509 | -65.02485 | 19398 ft | 339 kts | 323° |
| 2026-04-22 21:13 | -25.76596 | -65.03997 | 18997 ft | 337 kts | 323° |
| 2026-04-22 21:13 | -25.74693 | -65.05500 | 18601 ft | 334 kts | 323° |
| 2026-04-22 21:13 | -25.72801 | -65.06995 | 18212 ft | 332 kts | 323° |
| 2026-04-22 21:14 | -25.70921 | -65.08477 | 17819 ft | 330 kts | 323° |
| 2026-04-22 21:14 | -25.69032 | -65.09916 | 17439 ft | 328 kts | 326° |
| 2026-04-22 21:14 | -25.67085 | -65.11223 | 17058 ft | 327 kts | 328° |
| 2026-04-22 21:14 | -25.65123 | -65.12481 | 16675 ft | 325 kts | 329° |
| 2026-04-22 21:15 | -25.63170 | -65.13728 | 16305 ft | 323 kts | 329° |
| 2026-04-22 21:15 | -25.61229 | -65.14972 | 15941 ft | 321 kts | 329° |
| 2026-04-22 21:15 | -25.59299 | -65.16217 | 15559 ft | 320 kts | 329° |
| 2026-04-22 21:15 | -25.58029 | -65.17040 | 15324 ft | 319 kts | 329° |
| 2026-04-22 21:16 | -25.56117 | -65.18282 | 14958 ft | 317 kts | 329° |
| 2026-04-22 21:16 | -25.53595 | -65.19925 | 14663 ft | 309 kts | 329° |
| 2026-04-22 21:16 | -25.51789 | -65.21102 | 14502 ft | 301 kts | 329° |
| 2026-04-22 21:16 | -25.50005 | -65.22263 | 14378 ft | 293 kts | 329° |
| 2026-04-22 21:17 | -25.48833 | -65.23026 | 14291 ft | 288 kts | 329° |
| 2026-04-22 21:17 | -25.47129 | -65.24136 | 14109 ft | 282 kts | 329° |
| 2026-04-22 21:17 | -25.44892 | -65.25594 | 13723 ft | 281 kts | 329° |
| 2026-04-22 21:17 | -25.43212 | -65.26687 | 13431 ft | 279 kts | 329° |
| 2026-04-22 21:18 | -25.42081 | -65.27423 | 13237 ft | 279 kts | 329° |
| 2026-04-22 21:18 | -25.40411 | -65.28509 | 12944 ft | 278 kts | 329° |
| 2026-04-22 21:18 | -25.38771 | -65.29576 | 12654 ft | 277 kts | 329° |
| 2026-04-22 21:18 | -25.37093 | -65.30666 | 12355 ft | 276 kts | 330° |
| 2026-04-22 21:19 | -25.35457 | -65.31729 | 12061 ft | 275 kts | 330° |
| 2026-04-22 21:19 | -25.33811 | -65.32799 | 11765 ft | 274 kts | 330° |
| 2026-04-22 21:19 | -25.32171 | -65.33863 | 11484 ft | 272 kts | 330° |
| 2026-04-22 21:19 | -25.30536 | -65.34923 | 11201 ft | 271 kts | 330° |
| 2026-04-22 21:20 | -25.28911 | -65.35977 | 10935 ft | 273 kts | 330° |
| 2026-04-22 21:20 | -25.27258 | -65.37050 | 10670 ft | 278 kts | 330° |
| 2026-04-22 21:20 | -25.25577 | -65.38140 | 10396 ft | 282 kts | 330° |
| 2026-04-22 21:20 | -25.23870 | -65.39247 | 10122 ft | 286 kts | 330° |
| 2026-04-22 21:21 | -25.22155 | -65.40359 | 9849 ft | 286 kts | 330° |
| 2026-04-22 21:21 | -25.20438 | -65.41474 | 9549 ft | 285 kts | 330° |
| 2026-04-22 21:21 | -25.18728 | -65.42579 | 9178 ft | 285 kts | 330° |
| 2026-04-22 21:21 | -25.17022 | -65.43680 | 8896 ft | 283 kts | 330° |
| 2026-04-22 21:22 | -25.15326 | -65.44783 | 8608 ft | 281 kts | 330° |
| 2026-04-22 21:22 | -25.13646 | -65.45880 | 8318 ft | 279 kts | 330° |
| 2026-04-22 21:22 | -25.11978 | -65.46968 | 8046 ft | 277 kts | 330° |
| 2026-04-22 21:22 | -25.10331 | -65.48043 | 7817 ft | 272 kts | 330° |
| 2026-04-22 21:23 | -25.08728 | -65.49087 | 7533 ft | 264 kts | 330° |
| 2026-04-22 21:23 | -25.07171 | -65.50101 | 7262 ft | 256 kts | 330° |
| 2026-04-22 21:23 | -25.05683 | -65.51069 | 7014 ft | 246 kts | 330° |
| 2026-04-22 21:23 | -25.04233 | -65.52010 | 6803 ft | 231 kts | 330° |
| 2026-04-22 21:24 | -25.02813 | -65.52508 | 6677 ft | 207 kts | 6° |
| 2026-04-22 21:24 | -25.01493 | -65.52132 | 6720 ft | 195 kts | 15° |
| 2026-04-22 21:24 | -25.00182 | -65.51807 | 6682 ft | 188 kts | 12° |
| 2026-04-22 21:24 | -24.98920 | -65.51544 | 6416 ft | 187 kts | 11° |
| 2026-04-22 21:25 | -24.97686 | -65.51282 | 6225 ft | 175 kts | 11° |
| 2026-04-22 21:25 | -24.96510 | -65.51025 | 5960 ft | 169 kts | 12° |
| 2026-04-22 21:25 | -24.95356 | -65.50771 | 5722 ft | 169 kts | 12° |
| 2026-04-22 21:25 | -24.94204 | -65.50517 | 5508 ft | 168 kts | 12° |
| 2026-04-22 21:26 | -24.93067 | -65.50268 | 5278 ft | 165 kts | 12° |
| 2026-04-22 21:26 | -24.91941 | -65.50015 | 5039 ft | 165 kts | 13° |
| 2026-04-22 21:26 | -24.90825 | -65.49748 | 4816 ft | 164 kts | 13° |
| 2026-04-22 21:26 | -24.89705 | -65.49502 | 4593 ft | 163 kts | 12° |
| 2026-04-22 21:27 | -24.88579 | -65.49264 | 4327 ft | 165 kts | 12° |
| 2026-04-22 21:27 | -24.87459 | -65.49022 | 4096 ft | 163 kts | 11° |
| 2026-04-22 21:27 | -24.86420 | -65.48800 | 4004 ft | 122 kts | 10° |
| 2026-04-22 21:27 | -24.85920 | -65.48694 | 4018 ft | 50 kts | 11° |
| 2026-04-22 21:28 | -24.85660 | -65.48639 | 4017 ft | 27 kts | 11° |
| 2026-04-22 21:28 | -24.85479 | -65.48600 | 4017 ft | 26 kts | 11° |
| 2026-04-22 21:28 | -24.85310 | -65.48564 | 4016 ft | 24 kts | 11° |
| 2026-04-22 21:28 | -24.85152 | -65.48528 | 4017 ft | 23 kts | 12° |
| 2026-04-22 21:29 | -24.84999 | -65.48496 | 4016 ft | 22 kts | 10° |
| 2026-04-22 21:29 | -24.84849 | -65.48467 | 4018 ft | 21 kts | 10° |
| 2026-04-22 21:29 | -24.84729 | -65.48438 | 4016 ft | 14 kts | 20° |
| 2026-04-22 21:29 | -24.84656 | -65.48375 | 4003 ft | 13 kts | 43° |
| 2026-04-22 21:30 | -24.84600 | -65.48300 | 4016 ft | 13 kts | 69° |
| 2026-04-22 21:30 | -24.84571 | -65.48202 | 4016 ft | 14 kts | 72° |
| 2026-04-22 21:30 | -24.84542 | -65.48105 | 4016 ft | 13 kts | 72° |
| 2026-04-22 21:30 | -24.84515 | -65.48015 | 4016 ft | 9 kts | 72° |
| 2026-04-22 21:31 | -24.84501 | -65.47973 | 4016 ft | 5 kts | 57° |
| 2026-04-22 21:31 | -24.84470 | -65.47952 | 4016 ft | 4 kts | 23° |
| 2026-04-22 21:31 | -24.84467 | -65.47951 | 4016 ft | 0 kts | 23° |
| 2026-04-22 21:31 | -24.84465 | -65.47950 | 4016 ft | 0 kts | 23° |